sensor_id;sensor_type;location;lat;lon;timestamp;pressure;altitude;pressure_sealevel;temperature;humidity
63556;BME280;49700;48.072;7.800;2022-11-15T05:38:07;99047.88;;;10.73;78.46
63556;BME280;49700;48.072;7.800;2022-11-15T05:40:52;99040.97;;;10.72;78.61
63556;BME280;49700;48.072;7.800;2022-11-15T05:43:37;99043.47;;;10.74;78.74
63556;BME280;49700;48.072;7.800;2022-11-15T05:46:25;99044.31;;;10.74;78.67
63556;BME280;49700;48.072;7.800;2022-11-15T05:49:12;99039.78;;;10.76;78.53
63556;BME280;49700;48.072;7.800;2022-11-15T05:52:04;99044.06;;;10.77;78.56
63556;BME280;49700;48.072;7.800;2022-11-15T05:54:50;99037.88;;;10.78;78.63
63556;BME280;49700;48.072;7.800;2022-11-15T05:57:35;99030.94;;;10.77;78.60
63556;BME280;49700;48.072;7.800;2022-11-15T06:00:20;99026.66;;;10.76;78.64
63556;BME280;49700;48.072;7.800;2022-11-15T06:03:04;99037.06;;;10.78;78.59
63556;BME280;49700;48.072;7.800;2022-11-15T06:05:48;99039.44;;;10.81;78.56
63556;BME280;49700;48.072;7.800;2022-11-15T06:08:42;99039.13;;;10.85;78.42
63556;BME280;49700;48.072;7.800;2022-11-15T06:11:34;99036.25;;;10.89;78.33
63556;BME280;49700;48.072;7.800;2022-11-15T06:14:21;99041.28;;;10.92;78.24
63556;BME280;49700;48.072;7.800;2022-11-15T06:17:08;99027.19;;;10.93;78.18
63556;BME280;49700;48.072;7.800;2022-11-15T06:19:52;99031.50;;;10.94;78.27
63556;BME280;49700;48.072;7.800;2022-11-15T06:22:48;99034.22;;;10.92;78.37
63556;BME280;49700;48.072;7.800;2022-11-15T06:25:44;99031.00;;;10.89;78.42
63556;BME280;49700;48.072;7.800;2022-11-15T06:28:35;99034.94;;;10.83;78.23
63556;BME280;49700;48.072;7.800;2022-11-15T06:31:24;99030.22;;;10.75;78.58
63556;BME280;49700;48.072;7.800;2022-11-15T06:34:19;99035.81;;;10.71;78.67
63556;BME280;49700;48.072;7.800;2022-11-15T06:37:03;99039.50;;;10.68;78.85
63556;BME280;49700;48.072;7.800;2022-11-15T06:39:47;99039.50;;;10.68;78.73
63556;BME280;49700;48.072;7.800;2022-11-15T06:42:40;99040.34;;;10.69;78.84
63556;BME280;49700;48.072;7.800;2022-11-15T06:45:25;99038.78;;;10.66;79.03
63556;BME280;49700;48.072;7.800;2022-11-15T06:48:09;99042.25;;;10.67;78.86
63556;BME280;49700;48.072;7.800;2022-11-15T06:50:55;99039.63;;;10.67;79.08
63556;BME280;49700;48.072;7.800;2022-11-15T06:53:40;99037.84;;;10.67;79.01
63556;BME280;49700;48.072;7.800;2022-11-15T06:56:27;99042.25;;;10.67;79.07
63556;BME280;49700;48.072;7.800;2022-11-15T06:59:14;99038.78;;;10.66;79.29
63556;BME280;49700;48.072;7.800;2022-11-15T07:02:02;99042.34;;;10.65;78.99
63556;BME280;49700;48.072;7.800;2022-11-15T07:04:49;99033.50;;;10.66;79.00
63556;BME280;49700;48.072;7.800;2022-11-15T07:07:33;99037.00;;;10.67;79.07
63556;BME280;49700;48.072;7.800;2022-11-15T07:10:20;99027.34;;;10.67;79.12
63556;BME280;49700;48.072;7.800;2022-11-15T07:13:11;99028.78;;;10.71;79.05
63556;BME280;49700;48.072;7.800;2022-11-15T07:16:07;99031.28;;;10.73;79.18
63556;BME280;49700;48.072;7.800;2022-11-15T07:19:11;99035.50;;;10.75;79.15
63556;BME280;49700;48.072;7.800;2022-11-15T07:22:19;99030.22;;;10.75;79.15
63556;BME280;49700;48.072;7.800;2022-11-15T07:25:24;99035.25;;;10.78;79.09
63556;BME280;49700;48.072;7.800;2022-11-15T07:28:14;99031.56;;;10.81;79.10
63556;BME280;49700;48.072;7.800;2022-11-15T07:31:02;99034.94;;;10.83;79.10
63556;BME280;49700;48.072;7.800;2022-11-15T07:41:04;99024.47;;;10.94;79.37
63556;BME280;49700;48.072;7.800;2022-11-15T07:43:54;99024.81;;;11.01;79.03
63556;BME280;49700;48.072;7.800;2022-11-15T07:46:44;99021.72;;;11.07;79.07
63556;BME280;49700;48.072;7.800;2022-11-15T07:49:44;99023.19;;;11.11;79.01
63556;BME280;49700;48.072;7.800;2022-11-15T07:52:57;99019.38;;;11.15;78.89
63556;BME280;49700;48.072;7.800;2022-11-15T07:55:48;99014.81;;;11.17;78.78
63556;BME280;49700;48.072;7.800;2022-11-15T08:02:03;99022.63;;;11.30;78.49
63556;BME280;49700;48.072;7.800;2022-11-15T08:04:48;99015.00;;;11.38;78.83
63556;BME280;49700;48.072;7.800;2022-11-15T08:07:34;99011.06;;;11.44;78.82
63556;BME280;49700;48.072;7.800;2022-11-15T08:10:27;99011.31;;;11.52;78.63
63556;BME280;49700;48.072;7.800;2022-11-15T08:13:13;99011.78;;;11.57;78.60
63556;BME280;49700;48.072;7.800;2022-11-15T08:15:59;99013.84;;;11.65;78.36
63556;BME280;49700;48.072;7.800;2022-11-15T08:18:51;99013.34;;;11.71;78.15
63556;BME280;49700;48.072;7.800;2022-11-15T08:21:35;99001.50;;;11.77;78.04
63556;BME280;49700;48.072;7.800;2022-11-15T08:24:25;99007.16;;;11.83;77.73
63556;BME280;49700;48.072;7.800;2022-11-15T08:27:12;99010.16;;;11.90;77.73
63556;BME280;49700;48.072;7.800;2022-11-15T08:29:59;99005.38;;;11.95;77.53
63556;BME280;49700;48.072;7.800;2022-11-15T08:32:45;99006.81;;;11.99;77.27
63556;BME280;49700;48.072;7.800;2022-11-15T08:35:32;99010.84;;;12.03;77.33
63556;BME280;49700;48.072;7.800;2022-11-15T08:38:16;99007.97;;;12.06;77.29
63556;BME280;49700;48.072;7.800;2022-11-15T08:41:03;99009.66;;;12.07;77.10
63556;BME280;49700;48.072;7.800;2022-11-15T08:43:54;99002.47;;;12.09;77.06
63556;BME280;49700;48.072;7.800;2022-11-15T08:46:41;98999.72;;;12.11;77.23
63556;BME280;49700;48.072;7.800;2022-11-15T08:49:27;99002.09;;;12.14;77.22
63556;BME280;49700;48.072;7.800;2022-11-15T08:52:14;99008.69;;;12.20;77.25
63556;BME280;49700;48.072;7.800;2022-11-15T08:54:58;99007.59;;;12.22;77.13
63556;BME280;49700;48.072;7.800;2022-11-15T08:57:45;99008.31;;;12.24;77.12
63556;BME280;49700;48.072;7.800;2022-11-15T09:00:29;99006.50;;;12.25;77.16
63556;BME280;49700;48.072;7.800;2022-11-15T09:03:13;99010.94;;;12.24;77.22
63556;BME280;49700;48.072;7.800;2022-11-15T09:06:00;99005.78;;;12.23;77.41
63556;BME280;49700;48.072;7.800;2022-11-15T09:08:45;99004.97;;;12.22;77.41
63556;BME280;49700;48.072;7.800;2022-11-15T09:11:31;99013.84;;;12.21;77.57
63556;BME280;49700;48.072;7.800;2022-11-15T09:14:15;99021.84;;;12.20;77.65
63556;BME280;49700;48.072;7.800;2022-11-15T09:16:59;99017.41;;;12.20;77.64
63556;BME280;49700;48.072;7.800;2022-11-15T09:19:44;99015.63;;;12.21;77.67
63556;BME280;49700;48.072;7.800;2022-11-15T09:22:27;99016.47;;;12.21;77.79
63556;BME280;49700;48.072;7.800;2022-11-15T09:25:12;99016.22;;;12.24;77.54
63556;BME280;49700;48.072;7.800;2022-11-15T09:27:56;98999.34;;;12.27;77.27
63556;BME280;49700;48.072;7.800;2022-11-15T09:30:40;98985.19;;;12.28;77.34
63556;BME280;49700;48.072;7.800;2022-11-15T09:33:25;98988.56;;;12.30;77.40
63556;BME280;49700;48.072;7.800;2022-11-15T09:36:09;98989.97;;;12.34;77.19
63556;BME280;49700;48.072;7.800;2022-11-15T09:38:53;98994.03;;;12.38;77.28
63556;BME280;49700;48.072;7.800;2022-11-15T09:45:10;98994.00;;;12.49;76.93
63556;BME280;49700;48.072;7.800;2022-11-15T09:48:29;98997.09;;;12.54;76.88
63556;BME280;49700;48.072;7.800;2022-11-15T09:51:28;98994.81;;;12.61;76.63
63556;BME280;49700;48.072;7.800;2022-11-15T09:54:21;98983.88;;;12.66;76.29
63556;BME280;49700;48.072;7.800;2022-11-15T09:56:51;98993.31;;;12.68;76.26
63556;BME280;49700;48.072;7.800;2022-11-15T09:59:49;98986.13;;;12.70;76.18
63556;BME280;49700;48.072;7.800;2022-11-15T10:02:41;98980.72;;;12.72;76.15
63556;BME280;49700;48.072;7.800;2022-11-15T10:05:19;98971.03;;;12.72;76.28
63556;BME280;49700;48.072;7.800;2022-11-15T10:10:32;98959.16;;;12.78;76.15
63556;BME280;49700;48.072;7.800;2022-11-15T10:13:03;98953.38;;;12.84;76.19
63556;BME280;49700;48.072;7.800;2022-11-15T10:15:29;98946.63;;;12.91;75.98
63556;BME280;49700;48.072;7.800;2022-11-15T10:20:54;98952.03;;;13.11;75.35
63556;BME280;49700;48.072;7.800;2022-11-15T10:23:23;98944.28;;;13.19;75.25
63556;BME280;49700;48.072;7.800;2022-11-15T10:25:52;98940.22;;;13.26;75.08
63556;BME280;49700;48.072;7.800;2022-11-15T10:28:29;98930.78;;;13.33;74.93
63556;BME280;49700;48.072;7.800;2022-11-15T10:31:01;98921.78;;;13.36;74.96
63556;BME280;49700;48.072;7.800;2022-11-15T10:33:39;98923.31;;;13.38;75.18
63556;BME280;49700;48.072;7.800;2022-11-15T10:36:20;98911.66;;;13.41;75.17
63556;BME280;49700;48.072;7.800;2022-11-15T10:41:29;98905.03;;;13.46;75.21
63556;BME280;49700;48.072;7.800;2022-11-15T10:46:39;98902.81;;;13.52;74.94
63556;BME280;49700;48.072;7.800;2022-11-15T10:49:22;98898.09;;;13.55;75.10
63556;BME280;49700;48.072;7.800;2022-11-15T10:52:19;98896.72;;;13.61;75.12
63556;BME280;49700;48.072;7.800;2022-11-15T10:54:54;98885.78;;;13.65;75.01
63556;BME280;49700;48.072;7.800;2022-11-15T10:57:35;98879.13;;;13.71;74.83
63556;BME280;49700;48.072;7.800;2022-11-15T11:00:35;98880.09;;;13.80;74.72
63556;BME280;49700;48.072;7.800;2022-11-15T11:03:26;98877.78;;;13.86;74.70
63556;BME280;49700;48.072;7.800;2022-11-15T11:06:18;98878.19;;;13.91;74.45
63556;BME280;49700;48.072;7.800;2022-11-15T11:09:00;98868.47;;;13.92;74.15
63556;BME280;49700;48.072;7.800;2022-11-15T11:11:46;98863.31;;;13.90;74.59
63556;BME280;49700;48.072;7.800;2022-11-15T11:17:21;98848.34;;;13.91;74.61
63556;BME280;49700;48.072;7.800;2022-11-15T11:26:09;98835.81;;;13.93;74.52
63556;BME280;49700;48.072;7.800;2022-11-15T11:28:56;98829.56;;;13.94;74.50
63556;BME280;49700;48.072;7.800;2022-11-15T11:42:41;98803.56;;;14.09;74.40
63556;BME280;49700;48.072;7.800;2022-11-15T11:47:51;98800.09;;;14.18;74.18
63556;BME280;49700;48.072;7.800;2022-11-15T11:50:26;98791.91;;;14.21;73.92
63556;BME280;49700;48.072;7.800;2022-11-15T11:55:26;98780.47;;;14.30;73.71
63556;BME280;49700;48.072;7.800;2022-11-15T11:58:04;98768.66;;;14.34;73.80
63556;BME280;49700;48.072;7.800;2022-11-15T12:00:33;98773.38;;;14.41;73.82
63556;BME280;49700;48.072;7.800;2022-11-15T12:03:08;98771.13;;;14.46;73.65
63556;BME280;49700;48.072;7.800;2022-11-15T12:05:40;98774.06;;;14.52;73.53
63556;BME280;49700;48.072;7.800;2022-11-15T12:14:08;98751.13;;;14.53;73.65
63556;BME280;49700;48.072;7.800;2022-11-15T12:16:40;98743.03;;;14.54;73.66
63556;BME280;49700;48.072;7.800;2022-11-15T12:19:07;98731.34;;;14.57;73.76
63556;BME280;49700;48.072;7.800;2022-11-15T12:21:50;98730.38;;;14.58;73.61
63556;BME280;49700;48.072;7.800;2022-11-15T12:24:29;98725.94;;;14.58;73.70
63556;BME280;49700;48.072;7.800;2022-11-15T12:27:14;98720.66;;;14.58;73.59
63556;BME280;49700;48.072;7.800;2022-11-15T12:30:11;98711.75;;;14.59;73.49
63556;BME280;49700;48.072;7.800;2022-11-15T12:32:38;98702.97;;;14.59;73.42
63556;BME280;49700;48.072;7.800;2022-11-15T12:35:21;98702.00;;;14.60;73.65
63556;BME280;49700;48.072;7.800;2022-11-15T12:37:50;98702.16;;;14.58;73.89
63556;BME280;49700;48.072;7.800;2022-11-15T12:40:23;98698.66;;;14.58;73.83
63556;BME280;49700;48.072;7.800;2022-11-15T12:45:40;98707.13;;;14.52;74.28
63556;BME280;49700;48.072;7.800;2022-11-15T12:53:34;98696.06;;;14.38;74.75
63556;BME280;49700;48.072;7.800;2022-11-15T12:58:59;98679.69;;;14.25;75.41
63556;BME280;49700;48.072;7.800;2022-11-15T13:12:08;98661.78;;;14.19;75.30
63556;BME280;49700;48.072;7.800;2022-11-15T13:17:55;98654.00;;;14.17;75.36
63556;BME280;49700;48.072;7.800;2022-11-15T13:20:44;98646.94;;;14.18;75.14
63556;BME280;49700;48.072;7.800;2022-11-15T13:23:12;98637.31;;;14.17;75.21
63556;BME280;49700;48.072;7.800;2022-11-15T13:28:20;98631.38;;;14.15;75.36
63556;BME280;49700;48.072;7.800;2022-11-15T13:33:17;98633.31;;;14.13;75.44
63556;BME280;49700;48.072;7.800;2022-11-15T13:35:46;98626.34;;;14.12;75.37
63556;BME280;49700;48.072;7.800;2022-11-15T13:40:53;98608.03;;;14.10;75.53
63556;BME280;49700;48.072;7.800;2022-11-15T13:48:32;98600.41;;;13.98;75.91
63556;BME280;49700;48.072;7.800;2022-11-15T13:51:06;98596.41;;;13.93;75.98
63556;BME280;49700;48.072;7.800;2022-11-15T13:53:37;98587.81;;;13.91;76.23
63556;BME280;49700;48.072;7.800;2022-11-15T13:56:07;98586.13;;;13.90;76.30
63556;BME280;49700;48.072;7.800;2022-11-15T13:58:39;98575.56;;;13.90;76.32
63556;BME280;49700;48.072;7.800;2022-11-15T14:01:05;98581.97;;;13.88;76.28
63556;BME280;49700;48.072;7.800;2022-11-15T14:03:41;98573.22;;;13.87;76.62
63556;BME280;49700;48.072;7.800;2022-11-15T14:06:18;98571.56;;;13.86;76.59
63556;BME280;49700;48.072;7.800;2022-11-15T14:11:34;98565.28;;;13.87;76.44
63556;BME280;49700;48.072;7.800;2022-11-15T14:14:10;98566.97;;;13.88;76.37
63556;BME280;49700;48.072;7.800;2022-11-15T14:22:33;98551.97;;;13.89;76.47
63556;BME280;49700;48.072;7.800;2022-11-15T14:31:51;98529.47;;;13.85;76.14
63556;BME280;49700;48.072;7.800;2022-11-15T14:34:20;98518.91;;;13.85;76.38
63556;BME280;49700;48.072;7.800;2022-11-15T14:36:47;98526.69;;;13.86;76.07
63556;BME280;49700;48.072;7.800;2022-11-15T14:39:13;98519.31;;;13.90;76.17
63556;BME280;49700;48.072;7.800;2022-11-15T14:41:38;98519.16;;;13.91;76.14
63556;BME280;49700;48.072;7.800;2022-11-15T14:44:05;98514.59;;;13.93;76.02
63556;BME280;49700;48.072;7.800;2022-11-15T14:46:31;98514.41;;;13.95;75.97
63556;BME280;49700;48.072;7.800;2022-11-15T14:48:56;98510.94;;;13.94;75.83
63556;BME280;49700;48.072;7.800;2022-11-15T14:51:22;98510.13;;;13.94;75.82
63556;BME280;49700;48.072;7.800;2022-11-15T14:53:47;98509.44;;;13.92;75.69
63556;BME280;49700;48.072;7.800;2022-11-15T14:56:16;98507.09;;;13.89;75.92
63556;BME280;49700;48.072;7.800;2022-11-15T14:58:44;98508.34;;;13.85;75.89
63556;BME280;49700;48.072;7.800;2022-11-15T15:40:57;98448.50;;;13.85;76.17
63556;BME280;49700;48.072;7.800;2022-11-15T15:43:32;98447.09;;;13.81;76.21
63556;BME280;49700;48.072;7.800;2022-11-15T15:46:01;98445.88;;;13.76;76.45
63556;BME280;49700;48.072;7.800;2022-11-15T15:48:26;98445.63;;;13.69;76.38
63556;BME280;49700;48.072;7.800;2022-11-15T15:50:54;98453.16;;;13.64;76.50
63556;BME280;49700;48.072;7.800;2022-11-15T15:53:22;98447.63;;;13.57;76.62
63556;BME280;49700;48.072;7.800;2022-11-15T15:55:47;98447.38;;;13.50;76.76
63556;BME280;49700;48.072;7.800;2022-11-15T15:58:15;98443.66;;;13.43;77.01
63556;BME280;49700;48.072;7.800;2022-11-15T16:00:49;98450.03;;;13.41;76.82
63556;BME280;49700;48.072;7.800;2022-11-15T16:03:26;98450.03;;;13.41;76.98
63556;BME280;49700;48.072;7.800;2022-11-15T16:05:53;98442.66;;;13.44;76.95
63556;BME280;49700;48.072;7.800;2022-11-15T16:08:26;98433.09;;;13.43;76.62
63556;BME280;49700;48.072;7.800;2022-11-15T16:10:52;98425.78;;;13.37;76.60
63556;BME280;49700;48.072;7.800;2022-11-15T16:13:23;98420.63;;;13.36;76.57
63556;BME280;49700;48.072;7.800;2022-11-15T16:15:59;98429.38;;;13.36;76.45
63556;BME280;49700;48.072;7.800;2022-11-15T16:18:25;98423.81;;;13.39;76.63
63556;BME280;49700;48.072;7.800;2022-11-15T16:21:20;98419.19;;;13.51;76.50
63556;BME280;49700;48.072;7.800;2022-11-15T22:49:46;98198.41;;;11.84;80.54
63556;BME280;49700;48.072;7.800;2022-11-15T22:52:47;98185.25;;;11.84;80.69
63556;BME280;49700;48.072;7.800;2022-11-15T22:55:33;98190.66;;;11.83;80.58
63556;BME280;49700;48.072;7.800;2022-11-15T22:58:25;98195.66;;;11.86;80.73
